Time;durP1;ratioP1;P1;durP2;ratioP2;P2;SDS_P1;SDS_P2;PMS_P1;PMS_P2;Temp;Humidity;BMP_temperature;BMP_pressure;BME280_temperature;BME280_humidity;BME280_pressure;Samples;Min_cycle;Max_cycle;Signal;HPM_P1;HPM_P2
2023/08/15 00:01:01;;;;;;;6.83;6.10;;;29.50;65.10;;;;;;5027134;28;20215;-50
2023/08/15 00:03:27;;;;;;;7.20;6.70;;;29.60;64.70;;;;;;5028101;28;20196;-47
2023/08/15 00:05:53;;;;;;;7.00;6.40;;;29.70;64.30;;;;;;5027563;28;20447;-47
2023/08/15 00:08:18;;;;;;;7.87;7.27;;;29.70;64.40;;;;;;5029122;28;20279;-47
2023/08/15 00:10:44;;;;;;;8.00;6.60;;;29.60;64.50;;;;;;5026723;28;20742;-47
2023/08/15 00:13:10;;;;;;;7.57;6.97;;;29.50;65.80;;;;;;5029411;28;20200;-48
2023/08/15 00:15:35;;;;;;;7.83;7.13;;;29.50;66.60;;;;;;5026397;28;20229;-51
2023/08/15 00:18:01;;;;;;;7.87;6.67;;;29.50;65.90;;;;;;5029888;28;20551;-48
2023/08/15 00:20:27;;;;;;;7.37;6.67;;;29.50;65.50;;;;;;5026401;28;20232;-50
2023/08/15 00:22:52;;;;;;;7.53;6.93;;;29.60;64.90;;;;;;5028399;28;20194;-48
2023/08/15 00:25:21;;;;;;;7.90;7.20;;;29.60;64.50;;;;;;5025357;28;20200;-48
2023/08/15 00:27:47;;;;;;;7.87;7.03;;;29.60;64.50;;;;;;5026868;28;20248;-47
2023/08/15 00:30:12;;;;;;;8.83;6.30;;;29.60;64.50;;;;;;5028869;28;20515;-47
2023/08/15 00:32:38;;;;;;;8.63;6.80;;;29.70;64.60;;;;;;5024116;28;20733;-49
2023/08/15 00:35:04;;;;;;;7.07;6.57;;;29.70;64.50;;;;;;5030716;28;20268;-50
2023/08/15 00:37:31;;;;;;;7.90;7.30;;;29.70;64.40;;;;;;5031862;28;20697;-49
2023/08/15 00:39:56;;;;;;;7.47;6.90;;;29.60;64.90;;;;;;5028027;28;20454;-48
2023/08/15 00:42:22;;;;;;;7.30;6.73;;;29.40;65.30;;;;;;5023400;28;20906;-50
2023/08/15 00:44:47;;;;;;;8.70;7.80;;;29.40;65.20;;;;;;5025875;28;20240;-47
2023/08/15 00:47:13;;;;;;;7.13;6.43;;;29.40;65.00;;;;;;5028875;28;20216;-48
2023/08/15 00:49:41;;;;;;;7.17;6.47;;;29.40;65.00;;;;;;5026655;28;20217;-49
2023/08/15 00:52:07;;;;;;;8.13;7.33;;;29.30;65.50;;;;;;5031101;28;20501;-47
2023/08/15 00:54:34;;;;;;;7.70;7.10;;;29.30;65.50;;;;;;5028748;28;20428;-47
2023/08/15 00:57:04;;;;;;;6.47;6.03;;;29.40;65.70;;;;;;5029139;28;20236;-54
2023/08/15 00:59:30;;;;;;;7.83;6.40;;;29.30;65.30;;;;;;5023283;28;20451;-47
2023/08/15 01:01:58;;;;;;;8.20;6.70;;;29.10;67.10;;;;;;5023566;28;20440;-50
2023/08/15 01:04:24;;;;;;;8.30;6.70;;;29.10;66.80;;;;;;5028800;28;20189;-48
2023/08/15 01:06:50;;;;;;;7.03;6.43;;;29.20;66.20;;;;;;5024007;28;20543;-50
2023/08/15 01:09:16;;;;;;;7.20;6.60;;;29.30;65.80;;;;;;5026502;28;20480;-51
2023/08/15 01:11:55;;;;;;;7.93;6.63;;;29.30;65.50;;;;;;5023221;28;20442;-49
2023/08/15 01:14:26;;;;;;;8.23;7.43;;;29.40;65.20;;;;;;5027044;28;20196;-50
2023/08/15 01:16:52;;;;;;;8.60;7.80;;;29.40;65.10;;;;;;5028015;28;20449;-50
2023/08/15 01:19:36;;;;;;;7.37;6.70;;;29.30;65.00;;;;;;5030306;28;20444;-47
2023/08/15 01:22:10;;;;;;;7.80;7.20;;;29.30;65.40;;;;;;5028151;28;20939;-48
2023/08/15 01:24:36;;;;;;;7.03;6.43;;;29.30;65.10;;;;;;5019880;28;20448;-48
2023/08/15 01:27:02;;;;;;;7.03;6.43;;;29.30;64.80;;;;;;5027649;28;20446;-46
2023/08/15 01:29:28;;;;;;;7.60;6.87;;;29.30;64.60;;;;;;5028009;28;20193;-49
2023/08/15 01:32:04;;;;;;;7.63;7.03;;;29.30;64.60;;;;;;5026032;28;20852;-48
2023/08/15 01:34:36;;;;;;;7.73;7.13;;;29.30;64.50;;;;;;5030808;28;20197;-49
2023/08/15 01:37:17;;;;;;;6.47;6.00;;;29.30;64.80;;;;;;5028895;28;20871;-49
2023/08/15 01:39:47;;;;;;;8.00;7.40;;;29.20;64.90;;;;;;5030495;28;20451;-48
2023/08/15 01:42:13;;;;;;;8.20;6.97;;;29.20;65.20;;;;;;5025425;28;20443;-49
2023/08/15 01:44:39;;;;;;;7.00;6.50;;;28.90;66.40;;;;;;5030294;28;20447;-48
2023/08/15 01:47:05;;;;;;;7.07;6.47;;;28.80;66.60;;;;;;5026998;28;20519;-47
2023/08/15 01:49:30;;;;;;;8.33;7.50;;;28.40;68.90;;;;;;5027604;28;20198;-47
2023/08/15 01:51:57;;;;;;;9.10;8.20;;;27.80;72.10;;;;;;5025221;28;20212;-46
2023/08/15 01:54:22;;;;;;;8.53;7.60;;;27.40;74.40;;;;;;5026864;28;20201;-46
2023/08/15 01:56:48;;;;;;;6.93;5.90;;;27.30;75.30;;;;;;5029256;28;22535;-47
2023/08/15 01:59:13;;;;;;;8.30;7.60;;;27.50;74.60;;;;;;5030530;28;20193;-47
2023/08/15 02:01:39;;;;;;;7.67;7.07;;;27.80;72.90;;;;;;5029176;28;20238;-46
2023/08/15 02:04:04;;;;;;;7.77;7.10;;;28.00;71.30;;;;;;5029697;28;20652;-48
2023/08/15 02:06:30;;;;;;;7.53;6.93;;;28.10;70.40;;;;;;5030296;28;20189;-47
2023/08/15 02:08:55;;;;;;;8.37;7.37;;;28.20;69.90;;;;;;5032491;28;20229;-48
2023/08/15 02:11:21;;;;;;;8.50;7.70;;;28.30;69.60;;;;;;5031642;28;20233;-47
2023/08/15 02:13:47;;;;;;;7.43;6.90;;;28.40;68.90;;;;;;5029075;28;20268;-46
2023/08/15 02:16:12;;;;;;;8.67;7.10;;;28.10;70.50;;;;;;5028541;28;20247;-47
2023/08/15 02:18:38;;;;;;;9.23;6.77;;;28.10;70.20;;;;;;5032535;28;20652;-47
2023/08/15 02:21:04;;;;;;;7.73;7.03;;;28.20;70.00;;;;;;5032841;28;20248;-47
2023/08/15 02:23:29;;;;;;;7.40;6.70;;;27.90;71.10;;;;;;5026240;28;20669;-47
2023/08/15 02:25:55;;;;;;;7.87;7.13;;;27.80;72.30;;;;;;5031779;28;20197;-47
2023/08/15 02:28:20;;;;;;;8.73;7.83;;;27.90;71.80;;;;;;5030734;28;20197;-49
2023/08/15 02:30:46;;;;;;;7.70;7.00;;;28.10;70.60;;;;;;5032859;28;20710;-48
2023/08/15 02:33:12;;;;;;;7.80;7.30;;;28.20;69.60;;;;;;5031744;28;20643;-46
2023/08/15 02:35:41;;;;;;;8.40;7.67;;;28.30;68.80;;;;;;5031615;28;20204;-47
2023/08/15 02:38:07;;;;;;;6.83;6.33;;;28.00;70.80;;;;;;5031121;28;20197;-48
2023/08/15 02:40:33;;;;;;;6.87;6.37;;;27.80;71.30;;;;;;5027408;28;20939;-47
2023/08/15 02:42:59;;;;;;;7.90;6.80;;;27.90;71.10;;;;;;5032064;28;20459;-46
2023/08/15 02:45:24;;;;;;;7.33;6.63;;;28.10;70.30;;;;;;5029283;28;20602;-51
2023/08/15 02:47:50;;;;;;;7.33;6.73;;;28.20;69.40;;;;;;5018631;28;20315;-49
2023/08/15 02:50:16;;;;;;;7.73;7.10;;;28.30;69.00;;;;;;5027235;28;20221;-47
2023/08/15 02:52:41;;;;;;;7.90;7.20;;;28.20;69.00;;;;;;5029511;28;20197;-47
2023/08/15 02:55:07;;;;;;;7.30;6.80;;;28.20;69.10;;;;;;5029491;28;20220;-50
2023/08/15 02:57:33;;;;;;;7.27;6.70;;;28.10;69.60;;;;;;5031260;28;20225;-47
2023/08/15 02:59:58;;;;;;;7.00;6.50;;;28.20;69.50;;;;;;5031796;28;20204;-52
2023/08/15 03:02:24;;;;;;;6.60;6.00;;;28.20;69.10;;;;;;5032167;28;20276;-48
2023/08/15 03:04:50;;;;;;;8.03;6.87;;;28.20;68.70;;;;;;5026355;28;20638;-52
2023/08/15 03:07:15;;;;;;;7.30;6.47;;;28.30;68.40;;;;;;5032265;28;20460;-53
2023/08/15 03:09:41;;;;;;;7.10;6.50;;;28.20;68.60;;;;;;5025633;28;20251;-52
2023/08/15 03:12:07;;;;;;;8.17;7.37;;;28.30;68.20;;;;;;5028519;28;20189;-51
2023/08/15 03:14:32;;;;;;;8.50;7.80;;;28.30;69.30;;;;;;5033234;28;20645;-51
2023/08/15 03:16:58;;;;;;;8.90;8.10;;;28.10;69.00;;;;;;5028391;28;20205;-51
2023/08/15 03:19:24;;;;;;;8.23;7.53;;;27.80;70.80;;;;;;5029803;28;20645;-52
2023/08/15 03:21:49;;;;;;;7.13;6.63;;;27.60;71.90;;;;;;5029355;28;20269;-52
2023/08/15 03:24:15;;;;;;;6.93;6.30;;;27.70;71.30;;;;;;5027804;28;20196;-50
2023/08/15 03:26:42;;;;;;;6.90;6.30;;;27.70;70.80;;;;;;5033161;28;20193;-47
2023/08/15 03:29:08;;;;;;;6.40;5.80;;;27.80;70.20;;;;;;5030972;28;20319;-48
2023/08/15 03:31:33;;;;;;;8.30;7.60;;;28.00;69.40;;;;;;5030035;28;20558;-46
2023/08/15 03:33:59;;;;;;;7.23;6.60;;;28.00;68.70;;;;;;5029147;28;20299;-49
2023/08/15 03:36:25;;;;;;;7.43;6.80;;;28.00;69.30;;;;;;5030031;28;20269;-47
2023/08/15 03:38:51;;;;;;;8.40;7.70;;;28.10;68.90;;;;;;5032489;28;20189;-47
2023/08/15 03:41:16;;;;;;;7.20;6.60;;;28.00;68.60;;;;;;5031164;28;20185;-48
2023/08/15 03:43:42;;;;;;;8.10;7.50;;;27.80;69.80;;;;;;5033605;28;20197;-49
2023/08/15 03:46:07;;;;;;;7.10;6.50;;;27.80;69.90;;;;;;5029935;28;20277;-51
2023/08/15 03:48:34;;;;;;;7.30;6.70;;;27.60;70.60;;;;;;5031617;28;20201;-49
2023/08/15 03:51:00;;;;;;;7.63;6.80;;;27.80;70.40;;;;;;5029413;28;20217;-52
2023/08/15 03:53:26;;;;;;;6.03;5.53;;;27.80;69.40;;;;;;5032495;28;20456;-53
2023/08/15 03:55:54;;;;;;;8.00;7.30;;;27.90;70.00;;;;;;5025745;28;20566;-47
2023/08/15 03:58:20;;;;;;;7.43;6.83;;;28.00;68.80;;;;;;5023305;28;20531;-53
2023/08/15 04:00:47;;;;;;;7.73;7.00;;;27.90;68.60;;;;;;5031264;28;20470;-52
2023/08/15 04:03:12;;;;;;;7.13;6.63;;;28.00;68.40;;;;;;5031362;28;20955;-50
2023/08/15 04:05:38;;;;;;;6.73;6.20;;;28.10;67.90;;;;;;5028008;28;20530;-51
2023/08/15 04:08:04;;;;;;;7.10;6.57;;;28.10;67.60;;;;;;5028678;28;20193;-51
2023/08/15 04:10:30;;;;;;;6.30;5.90;;;28.10;67.40;;;;;;5028226;28;20225;-50
2023/08/15 04:12:56;;;;;;;8.10;7.40;;;28.20;67.10;;;;;;5024418;28;20444;-52
2023/08/15 04:15:22;;;;;;;10.30;7.30;;;28.20;66.60;;;;;;5019432;28;20194;-51
2023/08/15 04:17:47;;;;;;;6.67;6.17;;;28.10;66.80;;;;;;5030607;28;20444;-48
2023/08/15 04:20:13;;;;;;;6.90;6.30;;;27.90;68.30;;;;;;5031627;28;20444;-51
2023/08/15 04:22:39;;;;;;;6.97;6.37;;;27.80;68.70;;;;;;5028411;28;20185;-50
2023/08/15 04:25:09;;;;;;;7.43;6.80;;;27.80;68.60;;;;;;5027629;28;20198;-52
2023/08/15 04:27:38;;;;;;;7.43;6.93;;;27.90;68.00;;;;;;5030259;28;20236;-46
2023/08/15 04:30:05;;;;;;;7.17;6.67;;;27.90;67.70;;;;;;5028004;28;20484;-52
2023/08/15 04:32:30;;;;;;;7.63;7.00;;;28.00;67.30;;;;;;5025412;28;20452;-48
2023/08/15 04:34:56;;;;;;;7.30;6.70;;;28.00;67.20;;;;;;5031039;28;20527;-53
2023/08/15 04:37:22;;;;;;;8.67;6.63;;;28.00;67.20;;;;;;5026591;28;20189;-50
2023/08/15 04:39:48;;;;;;;7.77;6.90;;;27.90;67.30;;;;;;5026185;28;20497;-52
2023/08/15 04:42:13;;;;;;;7.10;6.50;;;27.90;67.30;;;;;;5025513;28;20197;-50
2023/08/15 04:44:39;;;;;;;8.17;7.43;;;27.80;67.60;;;;;;5038311;28;20208;-50
2023/08/15 04:47:05;;;;;;;7.33;6.33;;;27.80;67.60;;;;;;5028531;28;20275;-46
2023/08/15 04:49:30;;;;;;;6.90;6.30;;;27.80;67.70;;;;;;5020730;28;20200;-47
2023/08/15 04:51:56;;;;;;;7.60;6.83;;;27.80;67.40;;;;;;5027326;28;20284;-47
2023/08/15 04:54:24;;;;;;;11.33;7.10;;;27.80;67.30;;;;;;5028380;28;20196;-47
2023/08/15 04:56:49;;;;;;;8.70;7.93;;;27.80;67.20;;;;;;5029830;28;20712;-50
2023/08/15 04:59:17;;;;;;;7.50;6.90;;;27.80;67.20;;;;;;5030336;28;20531;-49
2023/08/15 05:01:43;;;;;;;8.13;7.33;;;27.80;67.40;;;;;;5028115;28;20208;-50
2023/08/15 05:04:08;;;;;;;7.30;6.70;;;27.80;67.70;;;;;;5030971;28;20440;-48
2023/08/15 05:06:34;;;;;;;7.47;6.77;;;27.80;67.60;;;;;;5028922;28;20239;-48
2023/08/15 05:08:59;;;;;;;7.60;6.90;;;27.70;67.40;;;;;;5029098;28;20696;-49
2023/08/15 05:11:25;;;;;;;7.43;6.73;;;27.80;67.70;;;;;;5027628;28;20228;-47
2023/08/15 05:13:50;;;;;;;7.97;7.03;;;27.80;67.90;;;;;;5031989;28;20193;-52
2023/08/15 05:16:16;;;;;;;9.37;6.03;;;27.90;67.80;;;;;;5027682;28;20556;-50
2023/08/15 05:18:42;;;;;;;8.73;6.97;;;28.00;67.20;;;;;;5031867;28;20238;-50
2023/08/15 05:21:07;;;;;;;8.20;7.10;;;28.10;66.80;;;;;;5025695;28;20193;-46
2023/08/15 05:23:33;;;;;;;6.87;6.37;;;28.10;66.50;;;;;;5028380;28;20201;-52
2023/08/15 05:25:59;;;;;;;8.57;7.67;;;28.10;66.40;;;;;;5025569;28;20247;-52
2023/08/15 05:28:24;;;;;;;7.40;6.80;;;27.80;67.50;;;;;;5027487;28;20221;-49
2023/08/15 05:30:50;;;;;;;7.43;6.83;;;27.60;68.80;;;;;;5028337;28;20221;-47
2023/08/15 05:33:15;;;;;;;7.70;7.00;;;27.70;68.80;;;;;;5026376;28;20728;-46
2023/08/15 05:35:42;;;;;;;8.20;7.50;;;27.70;68.50;;;;;;5031350;28;20256;-47
2023/08/15 05:38:07;;;;;;;7.83;7.30;;;27.20;72.00;;;;;;5032371;28;20197;-48
2023/08/15 05:40:33;;;;;;;8.40;7.70;;;27.00;72.60;;;;;;5024096;28;20450;-50
2023/08/15 05:42:59;;;;;;;9.03;8.30;;;27.10;72.40;;;;;;5023732;28;20240;-51
2023/08/15 05:45:25;;;;;;;8.53;7.40;;;27.20;72.00;;;;;;5030145;28;20476;-47
2023/08/15 05:47:50;;;;;;;8.97;7.20;;;27.50;71.10;;;;;;5028039;28;20212;-46
2023/08/15 05:50:16;;;;;;;8.17;6.50;;;27.60;70.40;;;;;;5031545;28;20229;-47
2023/08/15 05:52:42;;;;;;;8.67;7.57;;;27.80;69.90;;;;;;5029626;28;20196;-51
2023/08/15 05:55:07;;;;;;;7.50;6.90;;;27.90;69.40;;;;;;5032979;28;20204;-52
2023/08/15 05:57:33;;;;;;;7.77;6.93;;;28.00;69.10;;;;;;5026550;28;20212;-47
2023/08/15 05:59:59;;;;;;;8.17;7.17;;;28.20;68.40;;;;;;5030890;28;20201;-46
2023/08/15 06:02:25;;;;;;;8.20;7.53;;;28.30;67.80;;;;;;5025699;28;20225;-50
2023/08/15 06:04:51;;;;;;;7.77;7.07;;;28.40;67.20;;;;;;5029729;28;20197;-52
2023/08/15 06:07:16;;;;;;;7.27;6.57;;;28.40;67.20;;;;;;5032257;28;20447;-47
2023/08/15 06:09:42;;;;;;;7.53;6.93;;;28.50;66.90;;;;;;5030923;28;20299;-46
2023/08/15 06:12:08;;;;;;;7.63;7.03;;;28.60;66.60;;;;;;5030954;28;20202;-46
2023/08/15 06:14:34;;;;;;;8.30;7.70;;;28.70;66.50;;;;;;5023687;28;20596;-50
2023/08/15 06:17:00;;;;;;;8.20;7.40;;;28.70;66.40;;;;;;5025080;28;20200;-47
2023/08/15 06:19:25;;;;;;;7.90;7.23;;;28.70;66.00;;;;;;5033269;28;20447;-47
2023/08/15 06:21:51;;;;;;;8.70;7.00;;;28.80;66.20;;;;;;5031813;28;20619;-49
2023/08/15 06:24:16;;;;;;;7.17;6.63;;;28.80;66.10;;;;;;5023487;28;20196;-46
2023/08/15 06:26:42;;;;;;;7.80;7.00;;;28.80;65.80;;;;;;5033746;28;20286;-47
2023/08/15 06:29:08;;;;;;;7.40;6.80;;;28.90;65.60;;;;;;5027987;28;20707;-46
2023/08/15 06:31:35;;;;;;;7.63;7.00;;;29.00;65.70;;;;;;5032173;28;20247;-49
2023/08/15 06:34:02;;;;;;;8.80;8.10;;;29.00;65.80;;;;;;5030991;28;20200;-46
2023/08/15 06:36:28;;;;;;;7.00;6.50;;;29.00;66.10;;;;;;5032177;28;20475;-45
2023/08/15 06:38:54;;;;;;;7.67;6.97;;;29.00;66.50;;;;;;5028590;28;20458;-48
2023/08/15 06:41:19;;;;;;;8.30;7.60;;;29.00;66.60;;;;;;5021041;28;20440;-50
2023/08/15 06:43:46;;;;;;;7.27;6.43;;;29.00;66.80;;;;;;5020535;28;20309;-46
2023/08/15 06:46:11;;;;;;;8.43;7.83;;;29.00;66.60;;;;;;5023589;28;20545;-46
2023/08/15 06:48:37;;;;;;;7.90;7.20;;;29.00;66.50;;;;;;5028537;28;20458;-46
2023/08/15 06:51:03;;;;;;;10.73;7.27;;;29.10;66.60;;;;;;5027925;28;20221;-49
2023/08/15 06:53:30;;;;;;;7.93;7.30;;;29.10;66.70;;;;;;5031647;28;20821;-50
2023/08/15 06:55:56;;;;;;;9.17;6.60;;;29.10;66.80;;;;;;5026139;28;20225;-48
2023/08/15 06:58:22;;;;;;;9.60;7.30;;;29.20;66.70;;;;;;5020529;28;20908;-47
2023/08/15 07:00:48;;;;;;;7.00;6.40;;;29.20;66.70;;;;;;5027770;28;20259;-47
2023/08/15 07:03:18;;;;;;;7.97;6.43;;;29.20;66.50;;;;;;5030802;28;20444;-46
2023/08/15 07:05:44;;;;;;;8.37;7.63;;;29.30;66.20;;;;;;5026813;28;20213;-46
2023/08/15 07:08:10;;;;;;;8.73;7.17;;;29.30;65.80;;;;;;5026499;28;20962;-46
2023/08/15 07:10:36;;;;;;;7.60;6.90;;;29.40;65.60;;;;;;5020878;28;21013;-47
2023/08/15 07:13:02;;;;;;;7.87;7.07;;;29.40;65.40;;;;;;5030101;28;20436;-50
2023/08/15 07:15:28;;;;;;;8.50;6.90;;;29.40;65.50;;;;;;5025650;28;20196;-49
2023/08/15 07:17:54;;;;;;;8.57;7.77;;;29.50;65.80;;;;;;5032237;28;20439;-47
2023/08/15 07:20:20;;;;;;;7.97;6.80;;;29.50;65.40;;;;;;5033904;28;20954;-47
2023/08/15 07:22:46;;;;;;;7.47;6.80;;;29.60;65.50;;;;;;5028867;28;20212;-46
2023/08/15 07:25:12;;;;;;;7.97;7.27;;;29.70;65.70;;;;;;5024706;28;20521;-47
2023/08/15 07:27:37;;;;;;;8.43;7.63;;;29.80;64.90;;;;;;5023548;28;20285;-46
2023/08/15 07:30:05;;;;;;;7.83;7.10;;;30.00;63.50;;;;;;5029334;28;20228;-46
2023/08/15 07:32:31;;;;;;;8.30;7.50;;;30.20;62.80;;;;;;5027675;28;20219;-46
2023/08/15 07:34:57;;;;;;;9.53;6.83;;;30.30;61.70;;;;;;5014657;28;20441;-47
2023/08/15 07:37:22;;;;;;;8.57;7.27;;;30.40;60.50;;;;;;5022465;28;20607;-47
2023/08/15 07:40:00;;;;;;;7.90;7.30;;;30.40;60.10;;;;;;5022864;28;20197;-46
2023/08/15 07:42:26;;;;;;;7.57;6.97;;;30.40;59.60;;;;;;5026294;28;20710;-48
2023/08/15 07:44:52;;;;;;;6.83;6.43;;;30.40;60.00;;;;;;5028261;28;20440;-49
2023/08/15 07:47:18;;;;;;;8.53;7.10;;;30.40;60.70;;;;;;5023292;28;20558;-45
2023/08/15 07:49:43;;;;;;;9.50;7.17;;;30.30;61.20;;;;;;5025081;28;20739;-47
2023/08/15 07:52:09;;;;;;;8.97;7.17;;;30.30;61.40;;;;;;5012977;28;20526;-48
2023/08/15 07:54:35;;;;;;;7.50;6.90;;;30.30;61.30;;;;;;5023935;28;20194;-46
2023/08/15 07:57:00;;;;;;;8.13;7.33;;;30.30;61.30;;;;;;5018976;28;20280;-45
2023/08/15 07:59:26;;;;;;;10.40;7.77;;;30.40;61.00;;;;;;5027844;28;20209;-48
2023/08/15 08:01:51;;;;;;;8.83;8.03;;;30.50;60.70;;;;;;5029847;28;20190;-48
2023/08/15 08:04:19;;;;;;;9.00;8.20;;;30.60;60.30;;;;;;5019503;28;20196;-46
2023/08/15 08:06:45;;;;;;;8.53;7.73;;;30.60;60.00;;;;;;5022269;28;20201;-46
2023/08/15 08:09:10;;;;;;;9.57;7.70;;;30.60;60.30;;;;;;5024472;28;20472;-45
2023/08/15 08:11:36;;;;;;;7.37;6.87;;;30.60;60.20;;;;;;5020013;28;20487;-48
2023/08/15 08:14:03;;;;;;;8.20;7.40;;;30.50;60.70;;;;;;5022648;28;20192;-49
2023/08/15 08:16:29;;;;;;;9.70;8.80;;;29.90;62.90;;;;;;5022941;28;20951;-47
2023/08/15 08:18:55;;;;;;;8.60;7.73;;;30.00;62.60;;;;;;5019935;28;20458;-47
2023/08/15 08:21:20;;;;;;;8.70;7.90;;;30.30;61.70;;;;;;5027178;28;20208;-46
2023/08/15 08:23:46;;;;;;;8.30;7.60;;;30.40;61.30;;;;;;5032172;28;20643;-45
2023/08/15 08:26:12;;;;;;;8.27;7.57;;;30.50;61.30;;;;;;5026152;28;20197;-49
2023/08/15 08:28:37;;;;;;;9.17;8.10;;;30.50;61.20;;;;;;5024233;28;20259;-46
2023/08/15 08:31:03;;;;;;;9.10;8.20;;;30.60;60.70;;;;;;5020160;28;20225;-48
2023/08/15 08:33:29;;;;;;;9.50;8.70;;;30.70;60.10;;;;;;5020049;28;20272;-50
2023/08/15 08:35:54;;;;;;;8.87;8.10;;;30.80;59.70;;;;;;5020523;28;20197;-52
2023/08/15 08:38:20;;;;;;;9.80;8.90;;;30.90;59.70;;;;;;5017038;28;20479;-47
2023/08/15 08:40:47;;;;;;;8.60;7.80;;;30.90;59.80;;;;;;5020239;28;20186;-46
2023/08/15 08:43:18;;;;;;;11.20;8.37;;;30.90;59.40;;;;;;5025738;28;20196;-47
2023/08/15 08:45:50;;;;;;;8.90;8.20;;;31.10;59.30;;;;;;5020881;28;20462;-48
2023/08/15 08:48:17;;;;;;;9.00;8.13;;;31.00;59.30;;;;;;5025895;28;20447;-48
2023/08/15 08:50:44;;;;;;;10.03;9.13;;;30.60;59.80;;;;;;5021494;28;20479;-46
2023/08/15 08:53:10;;;;;;;8.80;8.00;;;30.50;60.30;;;;;;5022456;28;20448;-47
2023/08/15 08:55:36;;;;;;;9.60;8.60;;;30.60;60.20;;;;;;5023111;28;20420;-49
2023/08/15 08:58:03;;;;;;;8.23;7.63;;;30.70;59.90;;;;;;5024321;28;20196;-53
2023/08/15 09:00:33;;;;;;;8.97;8.23;;;30.70;60.20;;;;;;5018570;28;20197;-46
2023/08/15 09:02:59;;;;;;;9.53;8.53;;;30.80;59.80;;;;;;5024421;28;20447;-46
2023/08/15 09:05:26;;;;;;;9.07;8.17;;;31.00;59.40;;;;;;5024702;28;20563;-47
2023/08/15 09:07:52;;;;;;;9.80;8.87;;;31.10;59.00;;;;;;5019116;28;20522;-47
2023/08/15 09:10:18;;;;;;;8.43;7.73;;;31.10;58.60;;;;;;5023441;28;20581;-52
2023/08/15 09:12:46;;;;;;;12.50;8.00;;;31.20;58.40;;;;;;5019978;28;20966;-49
2023/08/15 09:15:13;;;;;;;8.97;8.17;;;31.40;58.50;;;;;;5033544;28;20634;-47
2023/08/15 09:17:38;;;;;;;7.80;7.10;;;31.50;57.80;;;;;;5030118;28;20445;-47
2023/08/15 09:20:22;;;;;;;9.07;7.03;;;31.50;57.60;;;;;;5033951;28;20974;-47
2023/08/15 09:22:47;;;;;;;8.67;7.97;;;31.40;57.70;;;;;;5026545;28;20705;-48
2023/08/15 09:25:15;;;;;;;9.13;8.27;;;31.50;57.50;;;;;;5032987;28;20542;-46
2023/08/15 09:27:42;;;;;;;9.93;7.93;;;31.70;57.50;;;;;;5027076;28;20539;-48
2023/08/15 09:30:13;;;;;;;8.63;7.93;;;31.70;57.80;;;;;;5025822;28;20475;-48
2023/08/15 09:32:40;;;;;;;7.60;6.90;;;31.40;58.00;;;;;;5024963;28;20551;-46
2023/08/15 09:35:08;;;;;;;8.30;7.60;;;31.50;58.40;;;;;;5029167;28;20446;-49
2023/08/15 09:37:33;;;;;;;9.90;8.40;;;31.70;58.20;;;;;;5027775;28;20958;-51
2023/08/15 09:40:00;;;;;;;8.93;8.20;;;31.90;57.80;;;;;;5028122;28;20436;-49
2023/08/15 09:42:27;;;;;;;8.60;7.97;;;31.90;57.50;;;;;;5033843;28;20231;-50
2023/08/15 09:48:10;;;;;;;8.80;8.10;;;32.20;57.20;;;;;;5034663;23;20492;-52
2023/08/15 09:50:37;;;;;;;8.13;7.40;;;32.30;57.00;;;;;;5006378;28;20571;-50
2023/08/15 09:53:04;;;;;;;8.77;8.07;;;32.10;56.70;;;;;;5002604;28;20455;-45
2023/08/15 09:55:32;;;;;;;10.10;9.13;;;31.90;57.30;;;;;;5013641;28;20499;-45
2023/08/15 09:57:58;;;;;;;8.40;7.70;;;32.00;57.70;;;;;;5014614;28;20448;-46
2023/08/15 10:00:24;;;;;;;7.63;6.93;;;32.10;57.00;;;;;;5011286;28;20883;-49
2023/08/15 10:03:05;;;;;;;8.73;7.33;;;32.10;55.40;;;;;;5001874;28;20197;-49
2023/08/15 10:05:32;;;;;;;8.90;7.30;;;32.00;55.50;;;;;;5011538;28;20244;-45
2023/08/15 10:07:58;;;;;;;10.30;8.00;;;32.10;55.80;;;;;;5013081;28;20802;-45
2023/08/15 10:10:30;;;;;;;8.17;7.47;;;32.20;55.70;;;;;;5012249;28;20878;-46
2023/08/15 10:12:57;;;;;;;8.27;7.67;;;32.30;56.20;;;;;;5003196;28;20451;-46
2023/08/15 10:15:24;;;;;;;8.97;8.03;;;32.30;56.40;;;;;;5014411;28;20441;-45
2023/08/15 10:17:50;;;;;;;10.70;6.70;;;32.40;55.50;;;;;;5012563;28;20487;-52
2023/08/15 10:20:18;;;;;;;6.90;6.30;;;32.60;54.60;;;;;;5008149;28;20947;-46
2023/08/15 10:22:43;;;;;;;8.90;4.40;;;32.80;53.40;;;;;;5010762;28;20499;-48
2023/08/15 10:25:24;;;;;;;5.50;3.53;;;32.80;47.40;;;;;;5013973;28;20841;-44
2023/08/15 10:27:52;;;;;;;6.60;3.50;;;32.90;46.50;;;;;;5009979;28;20192;-45
2023/08/15 10:30:33;;;;;;;5.07;3.50;;;32.80;43.40;;;;;;5012970;28;20472;-46
2023/08/15 10:33:01;;;;;;;4.03;3.20;;;32.80;42.40;;;;;;5009190;28;22720;-46
2023/08/15 10:35:27;;;;;;;4.73;3.50;;;33.00;42.70;;;;;;5003721;28;20452;-48
2023/08/15 10:37:56;;;;;;;4.17;2.57;;;33.10;41.80;;;;;;5007998;28;20454;-49
2023/08/15 10:40:27;;;;;;;4.07;3.20;;;33.10;41.00;;;;;;5006385;28;20448;-45
2023/08/15 10:43:01;;;;;;;3.40;3.03;;;32.90;40.50;;;;;;5001880;28;20959;-47
2023/08/15 10:45:50;;;;;;;4.07;3.00;;;32.90;40.70;;;;;;5000599;28;20449;-51
2023/08/15 10:48:35;;;;;;;3.73;3.37;;;33.00;41.30;;;;;;5008661;28;20460;-45
2023/08/15 10:51:01;;;;;;;4.60;3.60;;;32.70;41.90;;;;;;5011743;28;20520;-46
2023/08/15 10:53:27;;;;;;;3.50;3.20;;;32.70;42.70;;;;;;5011470;28;20472;-46
2023/08/15 10:55:54;;;;;;;4.60;3.50;;;32.80;41.90;;;;;;5003768;28;20459;-48
2023/08/15 10:58:21;;;;;;;5.03;3.27;;;33.00;41.50;;;;;;5001557;28;20194;-45
2023/08/15 11:00:49;;;;;;;4.23;3.50;;;33.20;41.70;;;;;;5011253;28;20528;-46
2023/08/15 11:03:15;;;;;;;5.47;3.77;;;33.30;41.20;;;;;;5013052;28;20444;-48
2023/08/15 11:05:42;;;;;;;5.67;3.67;;;33.30;41.20;;;;;;5013386;28;20496;-45
2023/08/15 11:08:15;;;;;;;6.07;3.90;;;33.40;42.10;;;;;;5011216;28;20815;-46
2023/08/15 11:10:45;;;;;;;3.87;3.57;;;33.60;41.70;;;;;;5012724;28;20484;-45
2023/08/15 11:13:11;;;;;;;7.43;3.60;;;33.70;41.40;;;;;;5010129;28;20527;-45
2023/08/15 11:15:37;;;;;;;7.40;3.60;;;33.70;40.70;;;;;;5014551;28;20524;-46
2023/08/15 11:18:03;;;;;;;5.77;3.77;;;33.70;40.90;;;;;;5008154;28;20205;-45
2023/08/15 11:20:30;;;;;;;3.73;3.00;;;33.90;40.50;;;;;;5012893;28;20893;-45
2023/08/15 11:22:56;;;;;;;5.90;3.57;;;33.60;38.90;;;;;;5011282;28;20449;-47
2023/08/15 11:25:23;;;;;;;4.80;3.70;;;33.50;40.90;;;;;;5005866;28;20520;-45
2023/08/15 11:27:50;;;;;;;3.53;3.30;;;33.90;41.20;;;;;;5008524;28;20511;-46
2023/08/15 11:30:16;;;;;;;3.20;3.00;;;34.40;41.30;;;;;;5009022;28;21042;-45
2023/08/15 11:32:42;;;;;;;5.20;2.80;;;34.80;39.70;;;;;;5007856;28;20536;-45
2023/08/15 11:35:10;;;;;;;4.37;2.97;;;35.00;37.60;;;;;;5012322;28;20453;-45
2023/08/15 11:37:36;;;;;;;3.43;2.97;;;35.10;36.90;;;;;;5012352;28;20198;-47
2023/08/15 11:40:02;;;;;;;9.40;3.17;;;35.30;37.00;;;;;;5011149;28;20445;-46
2023/08/15 11:42:28;;;;;;;3.87;3.17;;;35.30;36.40;;;;;;5008012;28;20453;-46
2023/08/15 11:45:11;;;;;;;3.67;3.10;;;35.40;36.10;;;;;;5008329;28;20464;-46
2023/08/15 11:48:00;;;;;;;3.70;3.40;;;35.30;35.80;;;;;;5001814;28;20225;-45
2023/08/15 11:50:28;;;;;;;3.63;3.00;;;35.10;35.60;;;;;;5009604;28;20488;-46
2023/08/15 11:52:54;;;;;;;7.53;4.00;;;35.20;36.70;;;;;;5007880;28;20445;-50
2023/08/15 11:55:20;;;;;;;4.10;3.60;;;35.40;36.20;;;;;;5006596;28;20449;-46
2023/08/15 11:57:46;;;;;;;3.63;3.23;;;35.20;36.70;;;;;;5003267;28;20455;-47
2023/08/15 12:00:15;;;;;;;3.60;3.30;;;35.30;36.90;;;;;;5008438;28;20444;-49
2023/08/15 12:02:43;;;;;;;4.20;3.70;;;35.30;37.30;;;;;;5006634;28;20217;-48
2023/08/15 12:05:11;;;;;;;7.83;3.70;;;35.40;37.20;;;;;;5007659;28;20520;-50
2023/08/15 12:07:37;;;;;;;4.67;3.70;;;35.60;36.60;;;;;;5008095;28;20433;-47
2023/08/15 12:10:04;;;;;;;6.70;4.60;;;35.70;36.80;;;;;;5002529;28;20476;-47
2023/08/15 12:12:37;;;;;;;6.70;4.03;;;35.90;37.20;;;;;;5008306;28;20193;-47
2023/08/15 12:15:03;;;;;;;3.67;3.33;;;36.10;37.00;;;;;;5016494;28;20455;-46
2023/08/15 12:17:28;;;;;;;4.50;4.10;;;36.30;38.10;;;;;;5012320;28;20433;-48
2023/08/15 12:19:54;;;;;;;5.17;4.33;;;36.60;37.90;;;;;;5011102;28;20445;-47
2023/08/15 12:22:20;;;;;;;5.33;4.40;;;36.70;37.30;;;;;;5009539;28;20260;-49
2023/08/15 12:24:45;;;;;;;5.97;4.30;;;36.60;36.10;;;;;;5009884;28;20194;-49
2023/08/15 12:27:11;;;;;;;5.03;4.13;;;36.70;36.90;;;;;;5003966;28;20210;-48
2023/08/15 12:29:36;;;;;;;5.00;4.10;;;36.80;37.30;;;;;;5005217;28;20272;-48
2023/08/15 12:32:02;;;;;;;6.60;4.30;;;37.00;36.60;;;;;;5007721;28;20569;-52
2023/08/15 12:34:28;;;;;;;5.10;4.60;;;36.90;37.00;;;;;;5007423;28;20197;-50
2023/08/15 12:36:53;;;;;;;4.90;4.50;;;36.70;37.20;;;;;;5011869;28;20598;-48
2023/08/15 12:39:19;;;;;;;7.53;4.87;;;36.80;37.70;;;;;;5005330;28;20193;-49
2023/08/15 12:41:44;;;;;;;5.07;4.63;;;36.90;38.10;;;;;;5008869;28;20200;-49
2023/08/15 12:44:10;;;;;;;6.47;5.10;;;37.10;38.10;;;;;;4997936;28;20221;-49
2023/08/15 12:46:35;;;;;;;9.10;5.60;;;37.40;37.80;;;;;;5009135;28;20294;-47